createdAt,value
2022-10-05T00:01:01.897Z,12.30
2022-10-05T00:03:10.648Z,10.10
2022-10-05T00:07:30.201Z,8.60
2022-10-05T00:09:32.484Z,10.70
2022-10-05T00:11:33.927Z,9.65
2022-10-05T00:13:35.772Z,10.00
2022-10-05T00:15:37.225Z,7.30
2022-10-05T00:17:38.967Z,11.35
2022-10-05T00:19:40.446Z,13.35
2022-10-05T00:21:41.890Z,12.18
2022-10-05T00:23:43.345Z,11.48
2022-10-05T00:25:44.886Z,11.02
2022-10-05T00:27:56.678Z,11.23
2022-10-05T00:30:01.168Z,10.40
2022-10-05T00:32:02.783Z,8.95
2022-10-05T00:34:04.316Z,12.15
2022-10-05T00:36:07.203Z,11.02
2022-10-05T00:38:08.667Z,6.78
2022-10-05T00:40:56.382Z,10.85
2022-10-05T00:43:25.493Z,9.27
2022-10-05T00:45:36.009Z,7.15
2022-10-05T00:48:10.014Z,11.85
2022-10-05T00:50:14.459Z,9.85
2022-10-05T00:52:48.136Z,13.15
2022-10-05T00:55:18.812Z,7.78
2022-10-05T00:57:23.056Z,11.07
2022-10-05T00:59:43.409Z,8.52
2022-10-05T01:02:17.154Z,9.57
2022-10-05T01:04:46.736Z,10.55
2022-10-05T01:06:48.342Z,9.55
2022-10-05T01:08:55.054Z,10.00
2022-10-05T01:11:07.578Z,10.57
2022-10-05T01:13:11.616Z,11.60
2022-10-05T01:15:13.002Z,11.43
2022-10-05T01:17:29.067Z,9.60
2022-10-05T01:19:53.332Z,13.18
2022-10-05T01:22:04.356Z,9.98
2022-10-05T01:24:15.440Z,12.25
2022-10-05T01:26:47.415Z,10.45
2022-10-05T01:28:56.945Z,10.35
2022-10-05T01:31:28.471Z,11.35
2022-10-05T01:33:42.254Z,7.63
2022-10-05T01:36:00.227Z,9.35
2022-10-05T01:38:21.162Z,8.55
2022-10-05T01:40:25.610Z,7.35
2022-10-05T01:42:40.782Z,12.90
2022-10-05T01:44:42.277Z,14.93
2022-10-05T01:46:49.675Z,7.25
2022-10-05T01:49:17.166Z,7.80
2022-10-05T01:51:28.652Z,8.23
2022-10-05T01:53:37.457Z,12.77
2022-10-05T01:55:54.477Z,6.88
2022-10-05T01:58:05.088Z,14.25
2022-10-05T02:00:10.278Z,8.15
2022-10-05T02:02:16.538Z,6.15
2022-10-05T02:04:42.767Z,9.32
2022-10-05T02:06:47.260Z,10.15
2022-10-05T02:08:54.731Z,12.27
2022-10-05T02:11:02.121Z,9.20
2022-10-05T02:13:16.177Z,9.90
2022-10-05T02:15:24.160Z,8.80
2022-10-05T02:17:38.705Z,10.40
2022-10-05T02:19:50.352Z,10.88
2022-10-05T02:22:02.106Z,7.63
2022-10-05T02:24:09.886Z,8.82
2022-10-05T02:26:12.249Z,7.40
2022-10-05T02:28:19.767Z,6.07
2022-10-05T02:30:21.729Z,7.53
2022-10-05T02:32:28.717Z,11.70
2022-10-05T02:34:36.410Z,11.38
2022-10-05T02:36:38.194Z,11.68
2022-10-05T02:39:14.711Z,9.02
2022-10-05T02:41:34.529Z,13.68
2022-10-05T02:43:54.261Z,7.35
2022-10-05T02:46:30.362Z,12.23
2022-10-05T02:48:56.715Z,9.13
2022-10-05T02:51:28.027Z,10.63
2022-10-05T02:54:05.386Z,10.85
2022-10-05T02:56:26.897Z,11.38
2022-10-05T02:58:39.009Z,12.95
2022-10-05T03:01:11.720Z,14.57
2022-10-05T03:03:37.513Z,10.48
2022-10-05T03:05:48.683Z,11.13
2022-10-05T03:07:50.073Z,14.35
2022-10-05T03:10:17.130Z,9.13
2022-10-05T03:12:27.782Z,8.25
2022-10-05T03:15:04.037Z,11.30
2022-10-05T03:17:19.148Z,9.73
2022-10-05T03:19:36.906Z,9.43
2022-10-05T03:22:01.218Z,10.02
2022-10-05T03:24:33.206Z,9.65
2022-10-05T03:26:52.295Z,9.68
2022-10-05T03:29:26.071Z,23.08
2022-10-05T03:31:41.375Z,13.68
2022-10-05T03:34:12.764Z,12.57
2022-10-05T03:36:16.891Z,8.10
2022-10-05T03:38:23.227Z,12.07
2022-10-05T03:40:40.275Z,12.48
2022-10-05T03:43:18.595Z,12.57
2022-10-05T03:47:32.727Z,9.15
2022-10-05T03:49:55.824Z,10.07
2022-10-05T03:52:18.631Z,11.90
2022-10-05T03:54:32.595Z,12.63
2022-10-05T03:57:07.836Z,15.93
2022-10-05T03:59:16.973Z,11.82
2022-10-05T04:01:29.326Z,11.10
2022-10-05T04:03:50.832Z,10.90
2022-10-05T04:05:58.101Z,9.45
2022-10-05T04:08:07.085Z,11.40
2022-10-05T04:10:16.221Z,10.95
2022-10-05T04:12:27.928Z,13.80
2022-10-05T04:14:37.839Z,11.60
2022-10-05T04:16:44.981Z,9.38
2022-10-05T04:19:11.611Z,14.25
2022-10-05T04:21:38.170Z,10.63
2022-10-05T04:24:06.569Z,19.55
2022-10-05T04:28:32.379Z,14.02
2022-10-05T04:30:40.709Z,11.05
2022-10-05T04:32:53.961Z,18.65
2022-10-05T04:34:58.374Z,15.95
2022-10-05T04:37:06.351Z,11.40
2022-10-05T04:39:19.812Z,13.18
2022-10-05T04:41:39.269Z,14.15
2022-10-05T04:44:06.722Z,13.50
2022-10-05T04:46:43.624Z,13.77
2022-10-05T04:48:51.344Z,15.40
2022-10-05T04:51:08.133Z,13.02
2022-10-05T04:53:34.176Z,12.65
2022-10-05T04:56:00.207Z,10.27
2022-10-05T04:58:19.174Z,11.55
2022-10-05T05:00:25.814Z,14.32
2022-10-05T05:02:52.055Z,12.05
2022-10-05T05:05:20.970Z,14.68
2022-10-05T05:08:10.486Z,11.00
2022-10-05T05:10:24.003Z,14.25
2022-10-05T05:13:01.178Z,17.10
2022-10-05T05:15:26.916Z,13.80
2022-10-05T05:17:52.760Z,16.00
2022-10-05T05:20:20.899Z,12.60
2022-10-05T05:22:43.873Z,12.45
2022-10-05T05:25:20.567Z,13.18
2022-10-05T05:27:45.444Z,14.70
2022-10-05T05:30:24.567Z,22.77
2022-10-05T05:32:38.962Z,12.43
2022-10-05T05:35:28.631Z,15.45
2022-10-05T05:37:30.061Z,15.45
2022-10-05T05:39:41.843Z,13.65
2022-10-05T05:42:01.917Z,14.75
2022-10-05T05:44:14.320Z,14.60
2022-10-05T05:47:02.257Z,14.88
2022-10-05T05:49:06.201Z,15.90
2022-10-05T05:51:15.344Z,15.32
2022-10-05T05:53:23.608Z,19.02
2022-10-05T05:55:44.906Z,12.52
2022-10-05T05:57:52.922Z,17.98
2022-10-05T06:00:16.316Z,11.88
2022-10-05T06:02:27.629Z,14.32
2022-10-05T06:04:35.729Z,12.50
2022-10-05T06:06:42.285Z,14.52
2022-10-05T06:08:49.545Z,14.93
2022-10-05T06:10:55.196Z,12.48
2022-10-05T06:13:03.002Z,18.08
2022-10-05T06:15:13.477Z,18.77
2022-10-05T06:17:24.621Z,12.95
2022-10-05T06:19:27.985Z,14.82
2022-10-05T06:21:38.617Z,12.13
2022-10-05T06:23:52.281Z,16.88
2022-10-05T06:26:10.856Z,11.70
2022-10-05T06:28:14.977Z,22.08
2022-10-05T06:30:17.573Z,13.48
2022-10-05T06:32:48.052Z,17.65
2022-10-05T06:35:21.342Z,11.02
2022-10-05T06:37:45.984Z,12.85
2022-10-05T06:40:02.085Z,12.77
2022-10-05T06:42:25.273Z,12.43
2022-10-05T06:44:32.722Z,18.08
2022-10-05T06:46:55.766Z,13.30
2022-10-05T06:49:20.703Z,15.68
2022-10-05T06:51:48.302Z,11.18
2022-10-05T06:54:07.000Z,11.52
2022-10-05T06:56:20.020Z,11.20
2022-10-05T06:58:36.606Z,17.10
2022-10-05T07:00:41.030Z,14.20
2022-10-05T07:02:53.705Z,12.38
2022-10-05T07:05:16.822Z,16.05
2022-10-05T07:07:40.029Z,11.93
2022-10-05T07:09:47.363Z,13.90
2022-10-05T07:12:07.474Z,13.07
2022-10-05T07:14:09.245Z,18.58
2022-10-05T07:16:13.829Z,11.80
2022-10-05T07:18:48.048Z,11.40
2022-10-05T07:21:04.492Z,13.73
2022-10-05T07:23:27.638Z,14.73
2022-10-05T07:25:36.945Z,14.07
2022-10-05T07:27:59.873Z,12.02
2022-10-05T07:30:07.081Z,12.45
2022-10-05T07:32:55.400Z,10.75
2022-10-05T07:35:34.345Z,8.77
2022-10-05T07:37:57.923Z,12.57
2022-10-05T07:40:18.130Z,10.05
2022-10-05T07:42:28.541Z,9.80
2022-10-05T07:44:38.512Z,12.15
2022-10-05T07:46:46.619Z,8.15
2022-10-05T07:49:08.907Z,11.57
2022-10-05T07:51:26.248Z,14.20
2022-10-05T07:53:44.841Z,11.73
2022-10-05T07:58:30.153Z,9.27
2022-10-05T08:00:51.455Z,9.43
2022-10-05T08:03:01.022Z,10.02
2022-10-05T08:05:11.488Z,10.75
2022-10-05T08:07:17.381Z,13.70
2022-10-05T08:09:24.841Z,9.25
2022-10-05T08:11:26.250Z,9.68
2022-10-05T08:13:39.261Z,8.98
2022-10-05T08:15:43.211Z,6.53
2022-10-05T08:18:11.180Z,9.80
2022-10-05T08:20:37.403Z,9.63
2022-10-05T08:22:47.558Z,7.47
2022-10-05T08:24:58.319Z,9.25
2022-10-05T08:27:10.309Z,7.80
2022-10-05T08:29:14.757Z,7.68
2022-10-05T08:31:16.208Z,6.55
2022-10-05T08:33:20.245Z,7.75
2022-10-05T08:36:08.707Z,5.78
2022-10-05T08:38:20.248Z,8.13
2022-10-05T08:40:24.519Z,6.45
2022-10-05T08:42:44.853Z,7.47
2022-10-05T08:45:00.127Z,10.52
2022-10-05T08:47:05.433Z,6.30
2022-10-05T08:49:16.300Z,5.72
2022-10-05T08:51:58.762Z,6.57
2022-10-05T08:54:12.373Z,6.97
2022-10-05T08:56:17.732Z,7.72
2022-10-05T08:58:53.165Z,6.18
2022-10-05T09:01:03.795Z,6.40
2022-10-05T09:03:14.006Z,5.57
2022-10-05T09:05:21.436Z,9.07
2022-10-05T09:07:57.129Z,6.32
2022-10-05T09:10:26.284Z,5.60
2022-10-05T09:12:58.945Z,5.63
2022-10-05T09:15:41.005Z,5.90
2022-10-05T09:18:02.391Z,7.10
2022-10-05T09:20:17.302Z,5.82
2022-10-05T09:22:54.838Z,10.13
2022-10-05T09:25:15.648Z,5.45
2022-10-05T09:27:19.088Z,7.55
2022-10-05T09:29:41.906Z,5.95
2022-10-05T09:32:01.219Z,7.38
2022-10-05T09:34:30.580Z,6.70
2022-10-05T09:36:57.090Z,8.98
2022-10-05T09:39:16.791Z,5.18
2022-10-05T09:41:55.961Z,5.47
2022-10-05T09:44:07.941Z,5.22
2022-10-05T09:46:42.679Z,14.30
2022-10-05T09:49:21.550Z,7.85
2022-10-05T09:51:41.195Z,6.65
2022-10-05T09:54:02.981Z,9.80
2022-10-05T09:56:34.438Z,10.60
2022-10-05T09:59:07.332Z,5.75
2022-10-05T10:01:34.763Z,4.68
2022-10-05T10:03:58.508Z,4.00
2022-10-05T10:06:22.756Z,7.72
2022-10-05T10:08:52.136Z,7.03
2022-10-05T10:10:56.292Z,4.93
2022-10-05T10:13:19.644Z,3.72
2022-10-05T10:15:41.465Z,4.88
2022-10-05T10:18:04.337Z,5.28
2022-10-05T10:20:24.502Z,6.28
2022-10-05T10:22:53.320Z,5.90
2022-10-05T10:25:18.882Z,6.93
2022-10-05T10:27:32.286Z,3.65
2022-10-05T10:30:19.075Z,7.00
2022-10-05T10:32:50.587Z,3.97
2022-10-05T10:35:01.282Z,3.95
2022-10-05T10:37:42.352Z,4.28
2022-10-05T10:40:09.769Z,5.00
2022-10-05T10:42:32.473Z,3.93
2022-10-05T10:44:42.583Z,4.93
2022-10-05T10:46:44.783Z,7.13
2022-10-05T10:48:54.521Z,5.22
2022-10-05T10:51:14.065Z,3.35
2022-10-05T10:53:25.846Z,3.92
2022-10-05T10:55:45.520Z,4.72
2022-10-05T10:58:04.930Z,5.75
2022-10-05T11:00:22.397Z,3.65
2022-10-05T11:02:51.243Z,5.88
2022-10-05T11:05:33.781Z,6.10
2022-10-05T11:07:57.148Z,6.72
2022-10-05T11:10:16.541Z,3.47
2022-10-05T11:12:46.149Z,2.85
2022-10-05T11:15:15.007Z,2.17
2022-10-05T11:17:31.780Z,3.00
2022-10-05T11:20:05.005Z,4.07
2022-10-05T11:22:17.172Z,3.85
2022-10-05T11:24:45.066Z,4.40
2022-10-05T11:26:52.370Z,4.75
2022-10-05T11:29:24.483Z,3.05
2022-10-05T11:31:55.518Z,2.40
2022-10-05T11:34:29.314Z,3.95
2022-10-05T11:37:20.004Z,3.45
2022-10-05T11:39:43.552Z,3.30
2022-10-05T11:42:10.069Z,1.63
2022-10-05T11:44:12.183Z,3.53
2022-10-05T11:46:16.346Z,3.42
2022-10-05T11:48:55.043Z,5.15
2022-10-05T11:51:12.111Z,4.63
2022-10-05T11:53:37.585Z,1.75
2022-10-05T11:55:57.929Z,3.40
2022-10-05T11:58:07.461Z,2.28
2022-10-05T12:00:31.293Z,6.93
2022-10-05T12:02:43.040Z,5.18
2022-10-05T12:05:11.234Z,4.70
2022-10-05T12:07:27.672Z,2.20
2022-10-05T12:10:06.458Z,5.32
2022-10-05T12:12:29.581Z,1.83
2022-10-05T12:14:34.168Z,1.92
2022-10-05T12:16:51.065Z,1.85
2022-10-05T12:19:28.239Z,2.70
2022-10-05T12:21:44.206Z,7.90
2022-10-05T12:23:59.916Z,3.78
2022-10-05T12:26:15.200Z,2.85
2022-10-05T12:28:28.690Z,4.75
2022-10-05T12:30:51.725Z,1.42
2022-10-05T12:33:19.682Z,4.60
2022-10-05T12:35:49.656Z,3.90
2022-10-05T12:38:02.807Z,4.93
2022-10-05T12:40:26.727Z,3.28
2022-10-05T12:42:42.059Z,2.78
2022-10-05T12:44:55.638Z,2.45
2022-10-05T12:46:57.006Z,2.95
2022-10-05T12:49:25.804Z,4.03
2022-10-05T12:51:46.549Z,5.30
2022-10-05T12:53:56.960Z,3.85
2022-10-05T12:56:09.949Z,4.35
2022-10-05T12:58:36.109Z,2.22
2022-10-05T13:00:49.210Z,4.97
2022-10-05T13:02:59.457Z,4.20
2022-10-05T13:05:09.790Z,5.60
2022-10-05T13:07:32.070Z,3.80
2022-10-05T13:09:43.640Z,2.45
2022-10-05T13:11:50.890Z,3.75
2022-10-05T13:14:11.012Z,4.05
2022-10-05T13:16:31.069Z,2.13
2022-10-05T13:18:35.341Z,5.43
2022-10-05T13:20:46.296Z,4.53
2022-10-05T13:23:00.309Z,5.43
2022-10-05T13:25:13.821Z,2.70
2022-10-05T13:27:23.458Z,6.72
2022-10-05T13:29:39.736Z,8.27
2022-10-05T13:31:47.824Z,5.30
2022-10-05T13:34:08.391Z,6.63
2022-10-05T13:36:25.961Z,7.38
2022-10-05T13:39:03.516Z,3.20
2022-10-05T13:41:17.132Z,5.32
2022-10-05T13:43:28.200Z,4.57
2022-10-05T13:45:52.665Z,2.55
2022-10-05T13:48:05.896Z,3.10
2022-10-05T13:50:20.232Z,5.53
2022-10-05T13:52:34.082Z,3.80
2022-10-05T13:54:53.357Z,5.10
2022-10-05T13:57:05.461Z,2.75
2022-10-05T13:59:07.039Z,4.80
2022-10-05T14:01:22.279Z,5.75
2022-10-05T14:03:27.639Z,4.97
2022-10-05T14:05:31.165Z,5.82
2022-10-05T14:07:38.340Z,3.05
2022-10-05T14:09:48.813Z,4.15
2022-10-05T14:12:11.073Z,2.75
2022-10-05T14:14:16.191Z,2.58
2022-10-05T14:16:26.179Z,5.20
2022-10-05T14:18:31.349Z,3.53
2022-10-05T14:20:34.360Z,2.95
2022-10-05T14:22:42.172Z,4.63
2022-10-05T14:25:03.091Z,2.78
2022-10-05T14:27:18.924Z,3.20
2022-10-05T14:29:24.748Z,9.00
2022-10-05T14:31:36.423Z,5.30
2022-10-05T14:33:38.344Z,5.70
2022-10-05T14:35:54.669Z,2.95
2022-10-05T14:38:00.457Z,4.43
2022-10-05T14:40:26.141Z,6.68
2022-10-05T14:42:30.452Z,5.53
2022-10-05T14:46:53.169Z,2.35
2022-10-05T14:49:17.226Z,2.00
2022-10-05T14:51:30.349Z,2.88
2022-10-05T14:53:39.258Z,3.95
2022-10-05T14:56:06.278Z,5.15
2022-10-05T14:58:39.976Z,7.05
2022-10-05T15:00:56.874Z,6.35
2022-10-05T15:03:08.728Z,3.38
2022-10-05T15:05:19.003Z,2.58
2022-10-05T15:07:20.387Z,2.40
2022-10-05T15:09:55.050Z,1.48
2022-10-05T15:11:59.965Z,2.78
2022-10-05T15:14:06.144Z,3.55
2022-10-05T15:16:19.935Z,3.83
2022-10-05T15:18:41.687Z,4.68
2022-10-05T15:21:21.569Z,8.32
2022-10-05T15:23:53.224Z,6.35
2022-10-05T15:26:10.679Z,4.43
2022-10-05T15:28:24.167Z,1.90
2022-10-05T15:30:25.679Z,1.60
2022-10-05T15:32:29.817Z,3.40
2022-10-05T15:34:34.131Z,2.38
2022-10-05T15:37:07.759Z,5.45
2022-10-05T15:39:36.833Z,1.70
2022-10-05T15:42:00.350Z,2.05
2022-10-05T15:44:19.874Z,3.50
2022-10-05T15:46:34.381Z,2.20
2022-10-05T15:48:36.188Z,6.70
2022-10-05T15:50:50.491Z,7.63
2022-10-05T15:53:29.401Z,3.78
2022-10-05T15:55:49.101Z,7.88
2022-10-05T15:58:24.807Z,2.50
2022-10-05T16:00:28.091Z,2.97
2022-10-05T16:02:41.153Z,5.55
2022-10-05T16:04:59.983Z,5.10
2022-10-05T16:07:30.971Z,1.98
2022-10-05T16:10:03.683Z,1.83
2022-10-05T16:12:19.032Z,4.32
2022-10-05T16:14:34.551Z,7.30
2022-10-05T16:16:47.177Z,5.78
2022-10-05T16:19:14.883Z,4.22
2022-10-05T16:21:32.039Z,2.08
2022-10-05T16:24:30.856Z,2.33
2022-10-05T16:26:40.584Z,2.05
2022-10-05T16:28:59.991Z,3.83
2022-10-05T16:31:34.612Z,5.72
2022-10-05T16:34:17.118Z,2.85
2022-10-05T16:36:31.490Z,6.82
2022-10-05T16:38:51.317Z,2.40
2022-10-05T16:41:20.921Z,9.80
2022-10-05T16:43:49.500Z,3.85
2022-10-05T16:46:20.848Z,6.00
2022-10-05T16:48:32.788Z,2.55
2022-10-05T16:50:37.176Z,3.15
2022-10-05T16:52:41.790Z,4.55
2022-10-05T16:54:49.653Z,2.30
2022-10-05T16:57:14.317Z,3.17
2022-10-05T16:59:37.202Z,4.35
2022-10-05T17:02:10.805Z,2.15
2022-10-05T17:04:46.036Z,3.97
2022-10-05T17:07:14.288Z,1.98
2022-10-05T17:09:34.580Z,4.22
2022-10-05T17:11:44.935Z,3.10
2022-10-05T17:14:05.107Z,5.13
2022-10-05T17:16:40.492Z,3.33
2022-10-05T17:19:23.025Z,4.28
2022-10-05T17:21:41.368Z,1.90
2022-10-05T17:24:11.069Z,3.75
2022-10-05T17:26:33.972Z,2.33
2022-10-05T17:28:44.780Z,4.07
2022-10-05T17:30:56.112Z,2.28
2022-10-05T17:33:14.144Z,2.33
2022-10-05T17:35:19.160Z,3.42
2022-10-05T17:37:41.639Z,2.17
2022-10-05T17:39:52.526Z,2.72
2022-10-05T17:42:24.940Z,2.28
2022-10-05T17:44:26.623Z,2.30
2022-10-05T17:46:39.843Z,3.83
2022-10-05T17:48:54.317Z,2.10
2022-10-05T17:51:14.399Z,4.28
2022-10-05T17:53:40.528Z,1.95
2022-10-05T17:55:45.995Z,2.45
2022-10-05T17:57:47.499Z,1.85
2022-10-05T17:59:57.972Z,3.65
2022-10-05T18:02:19.900Z,9.93
2022-10-05T18:04:30.353Z,5.75
2022-10-05T18:06:34.409Z,2.03
2022-10-05T18:08:40.754Z,3.25
2022-10-05T18:11:12.865Z,3.50
2022-10-05T18:13:35.287Z,4.25
2022-10-05T18:15:44.715Z,4.57
2022-10-05T18:17:52.928Z,1.77
2022-10-05T18:20:18.043Z,2.25
2022-10-05T18:22:19.424Z,2.88
2022-10-05T18:24:40.280Z,3.80
2022-10-05T18:27:03.036Z,2.95
2022-10-05T18:29:45.371Z,2.20
2022-10-05T18:31:55.190Z,3.50
2022-10-05T18:34:34.108Z,8.73
2022-10-05T18:36:56.486Z,1.73
2022-10-05T18:39:12.946Z,7.28
2022-10-05T18:41:35.361Z,4.05
2022-10-05T18:44:08.610Z,8.10
2022-10-05T18:46:48.366Z,3.40
2022-10-05T18:49:11.078Z,2.17
2022-10-05T18:51:21.724Z,6.07
2022-10-05T18:53:29.219Z,4.15
2022-10-05T18:55:43.469Z,3.17
2022-10-05T18:58:05.556Z,10.15
2022-10-05T19:00:16.276Z,2.78
2022-10-05T19:02:25.201Z,3.20
2022-10-05T19:04:43.658Z,1.60
2022-10-05T19:07:17.347Z,3.42
2022-10-05T19:09:24.789Z,2.70
2022-10-05T19:11:38.415Z,2.63
2022-10-05T19:14:10.683Z,3.83
2022-10-05T19:16:46.265Z,3.58
2022-10-05T19:19:04.491Z,3.08
2022-10-05T19:21:29.492Z,2.03
2022-10-05T19:24:01.773Z,7.18
2022-10-05T19:26:16.550Z,2.65
2022-10-05T19:28:30.929Z,4.07
2022-10-05T19:30:46.621Z,4.03
2022-10-05T19:32:56.974Z,4.03
2022-10-05T19:35:20.328Z,3.97
2022-10-05T19:38:01.008Z,4.90
2022-10-05T19:40:20.587Z,3.38
2022-10-05T19:43:06.655Z,2.17
2022-10-05T19:45:08.081Z,2.22
2022-10-05T19:47:41.273Z,1.88
2022-10-05T19:49:47.604Z,4.75
2022-10-05T19:51:50.620Z,5.88
2022-10-05T19:53:56.033Z,2.65
2022-10-05T19:56:16.664Z,4.25
2022-10-05T19:58:21.657Z,2.03
2022-10-05T20:00:31.242Z,3.53
2022-10-05T20:02:37.505Z,4.15
2022-10-05T20:04:47.490Z,9.38
2022-10-05T20:06:49.070Z,6.10
2022-10-05T20:08:52.655Z,6.97
2022-10-05T20:11:27.221Z,5.53
2022-10-05T20:13:32.651Z,4.20
2022-10-05T20:15:54.578Z,5.57
2022-10-05T20:18:14.795Z,3.40
2022-10-05T20:20:38.217Z,5.25
2022-10-05T20:22:46.294Z,2.20
2022-10-05T20:24:53.488Z,5.57
2022-10-05T20:27:05.474Z,2.50
2022-10-05T20:29:09.290Z,1.25
2022-10-05T20:31:10.901Z,2.83
2022-10-05T20:33:14.839Z,5.88
2022-10-05T20:35:18.652Z,5.32
2022-10-05T20:37:20.187Z,2.88
2022-10-05T20:39:21.729Z,3.33
2022-10-05T20:41:23.231Z,4.85
2022-10-05T20:43:24.713Z,2.25
2022-10-05T20:45:26.334Z,4.82
2022-10-05T20:47:27.784Z,2.10
2022-10-05T20:49:30.976Z,5.30
2022-10-05T20:51:32.427Z,2.40
2022-10-05T20:53:34.053Z,4.78
2022-10-05T20:55:36.366Z,1.83
2022-10-05T20:57:41.851Z,4.63
2022-10-05T20:59:43.396Z,3.03
2022-10-05T21:01:48.013Z,5.00
2022-10-05T21:03:50.639Z,6.45
2022-10-05T21:05:52.091Z,6.38
2022-10-05T21:07:53.514Z,4.20
2022-10-05T21:09:55.688Z,3.30
2022-10-05T21:11:57.472Z,3.30
2022-10-05T21:14:03.375Z,2.25
2022-10-05T21:16:08.794Z,2.03
2022-10-05T21:18:10.251Z,2.75
2022-10-05T21:20:12.022Z,2.92
2022-10-05T21:22:13.467Z,2.30
2022-10-05T21:24:15.340Z,4.13
2022-10-05T21:26:16.876Z,5.80
2022-10-05T21:28:18.479Z,3.25
2022-10-05T21:30:19.958Z,3.90
2022-10-05T21:32:21.384Z,3.15
2022-10-05T21:34:22.810Z,2.03
2022-10-05T21:36:24.853Z,5.07
2022-10-05T21:38:27.074Z,1.52
2022-10-05T21:40:28.702Z,3.72
2022-10-05T21:42:30.183Z,2.53
2022-10-05T21:44:31.631Z,2.72
2022-10-05T21:46:36.028Z,4.05
2022-10-05T21:48:39.677Z,4.88
2022-10-05T21:50:41.665Z,4.30
2022-10-05T21:52:43.361Z,11.10
2022-10-05T21:54:44.893Z,7.30
2022-10-05T21:56:50.181Z,4.90
2022-10-05T21:58:52.221Z,2.65
2022-10-05T22:00:53.742Z,3.75
2022-10-05T22:02:55.218Z,3.83
2022-10-05T22:04:58.108Z,2.92
2022-10-05T22:06:59.714Z,2.42
2022-10-05T22:09:01.202Z,3.65
2022-10-05T22:11:12.126Z,7.05
2022-10-05T22:13:13.594Z,4.25
2022-10-05T22:15:15.421Z,4.53
2022-10-05T22:17:23.182Z,5.30
2022-10-05T22:19:24.801Z,1.73
2022-10-05T22:21:26.492Z,2.92
2022-10-05T22:23:27.912Z,1.27
2022-10-05T22:25:33.784Z,1.95
2022-10-05T22:27:36.006Z,0.45
2022-10-05T22:29:37.546Z,0.30
2022-10-05T22:31:39.286Z,0.68
2022-10-05T22:33:41.015Z,1.60
2022-10-05T22:35:42.585Z,0.40
2022-10-05T22:37:45.178Z,1.17
2022-10-05T22:39:46.605Z,0.30
2022-10-05T22:41:48.686Z,0.30
2022-10-05T22:43:51.232Z,0.60
2022-10-05T22:45:53.283Z,0.30
2022-10-05T22:47:54.725Z,1.58
2022-10-05T22:49:56.189Z,0.68
2022-10-05T22:51:57.641Z,2.17
2022-10-05T22:53:59.086Z,1.20
2022-10-05T22:56:08.578Z,0.20
2022-10-05T22:58:10.018Z,0.65
2022-10-05T23:00:12.416Z,1.05
2022-10-05T23:02:14.078Z,0.63
2022-10-05T23:04:15.584Z,0.70
2022-10-05T23:06:19.286Z,0.35
2022-10-05T23:08:20.750Z,2.28
2022-10-05T23:10:22.303Z,0.45
2022-10-05T23:12:23.730Z,2.78
2022-10-05T23:14:25.216Z,0.93
2022-10-05T23:16:28.249Z,2.35
2022-10-05T23:18:30.239Z,0.85
2022-10-05T23:20:32.200Z,0.30
2022-10-05T23:22:37.873Z,1.63
2022-10-05T23:24:39.294Z,2.78
2022-10-05T23:26:40.729Z,1.00
2022-10-05T23:28:46.586Z,0.63
2022-10-05T23:30:48.151Z,0.73
2022-10-05T23:32:49.610Z,0.63
2022-10-05T23:34:51.045Z,0.45
2022-10-05T23:36:52.748Z,1.27
2022-10-05T23:38:54.313Z,0.65
2022-10-05T23:40:57.948Z,3.22
2022-10-05T23:43:00.810Z,0.38
2022-10-05T23:45:02.317Z,0.45
2022-10-05T23:47:03.805Z,0.30
2022-10-05T23:49:05.262Z,0.50
2022-10-05T23:51:08.213Z,1.95
2022-10-05T23:53:09.713Z,1.33
2022-10-05T23:55:11.148Z,0.63
2022-10-05T23:57:19.350Z,0.60
2022-10-05T23:59:20.780Z,0.55
